createdAt,value
2024-04-22T00:00:06.310Z,100.00
2024-04-22T00:02:37.648Z,100.00
2024-04-22T00:05:11.675Z,100.00
2024-04-22T00:07:39.931Z,100.00
2024-04-22T00:10:10.863Z,100.00
2024-04-22T00:12:38.678Z,100.00
2024-04-22T00:15:12.673Z,100.00
2024-04-22T00:17:40.660Z,100.00
2024-04-22T00:20:12.859Z,100.00
2024-04-22T00:22:40.978Z,100.00
2024-04-22T00:25:12.643Z,100.00
2024-04-22T00:27:42.240Z,100.00
2024-04-22T00:30:18.667Z,100.00
2024-04-22T00:32:47.102Z,100.00
2024-04-22T00:35:18.189Z,100.00
2024-04-22T00:37:48.520Z,100.00
2024-04-22T00:40:19.232Z,100.00
2024-04-22T00:42:51.785Z,100.00
2024-04-22T00:45:25.264Z,100.00
2024-04-22T00:47:55.151Z,100.00
2024-04-22T00:50:26.376Z,100.00
2024-04-22T00:52:55.690Z,100.00
2024-04-22T00:55:27.834Z,100.00
2024-04-22T00:57:58.228Z,100.00
2024-04-22T01:00:35.954Z,100.00
2024-04-22T01:03:05.033Z,100.00
2024-04-22T01:05:40.859Z,100.00
2024-04-22T01:08:10.978Z,100.00
2024-04-22T01:10:41.680Z,100.00
2024-04-22T01:13:09.694Z,100.00
2024-04-22T01:15:43.692Z,100.00
2024-04-22T01:18:18.520Z,100.00
2024-04-22T01:20:51.477Z,100.00
2024-04-22T01:23:22.429Z,100.00
2024-04-22T01:25:56.860Z,100.00
2024-04-22T01:28:25.537Z,100.00
2024-04-22T01:30:56.587Z,100.00
2024-04-22T01:33:24.968Z,100.00
2024-04-22T01:35:56.354Z,100.00
2024-04-22T01:38:27.455Z,100.00
2024-04-22T01:41:03.438Z,100.00
2024-04-22T01:43:32.063Z,100.00
2024-04-22T01:46:07.300Z,100.00
2024-04-22T01:48:35.237Z,100.00
2024-04-22T01:51:06.029Z,100.00
2024-04-22T01:53:44.004Z,100.00
2024-04-22T01:56:14.614Z,100.00
2024-04-22T01:58:45.669Z,100.00
2024-04-22T02:01:18.838Z,100.00
2024-04-22T02:03:49.710Z,100.00
2024-04-22T02:06:20.411Z,100.00
2024-04-22T02:08:51.669Z,100.00
2024-04-22T02:11:23.274Z,100.00
2024-04-22T02:13:52.676Z,100.00
2024-04-22T02:16:23.316Z,100.00
2024-04-22T02:18:54.950Z,100.00
2024-04-22T02:21:28.174Z,100.00
2024-04-22T02:24:01.117Z,100.00
2024-04-22T02:26:29.039Z,100.00
2024-04-22T02:28:59.770Z,100.00
2024-04-22T02:31:28.201Z,100.00
2024-04-22T02:33:59.192Z,100.00
2024-04-22T02:36:26.996Z,100.00
2024-04-22T02:39:02.047Z,100.00
2024-04-22T02:41:31.063Z,100.00
2024-04-22T02:44:02.820Z,100.00
2024-04-22T02:46:32.445Z,100.00
2024-04-22T02:49:03.353Z,100.00
2024-04-22T02:51:31.750Z,100.00
2024-04-22T02:54:07.194Z,100.00
2024-04-22T02:56:35.430Z,100.00
2024-04-22T02:59:08.222Z,100.00
2024-04-22T03:01:37.502Z,100.00
2024-04-22T03:04:10.088Z,100.00
2024-04-22T03:06:37.969Z,100.00
2024-04-22T03:09:14.294Z,100.00
2024-04-22T03:11:42.631Z,100.00
2024-04-22T03:14:14.013Z,100.00
2024-04-22T03:16:41.838Z,100.00
2024-04-22T03:19:12.897Z,100.00
2024-04-22T03:21:41.701Z,100.00
2024-04-22T03:24:14.905Z,100.00
2024-04-22T03:26:43.417Z,100.00
2024-04-22T03:29:18.641Z,100.00
2024-04-22T03:31:48.707Z,100.00
2024-04-22T03:34:20.556Z,100.00
2024-04-22T03:36:51.375Z,100.00
2024-04-22T03:39:25.186Z,100.00
2024-04-22T03:41:56.326Z,100.00
2024-04-22T03:44:28.794Z,100.00
2024-04-22T03:47:16.525Z,100.00
2024-04-22T03:49:57.609Z,100.00
2024-04-22T03:52:31.946Z,100.00
2024-04-22T03:55:05.339Z,100.00
2024-04-22T03:57:35.633Z,100.00
2024-04-22T04:00:06.353Z,100.00
2024-04-22T04:02:40.044Z,100.00
2024-04-22T04:05:13.855Z,100.00
2024-04-22T04:07:42.076Z,100.00
2024-04-22T04:10:23.631Z,100.00
2024-04-22T04:12:53.715Z,100.00
2024-04-22T04:15:27.430Z,100.00
2024-04-22T04:17:56.329Z,100.00
2024-04-22T04:20:27.348Z,100.00
2024-04-22T04:22:55.815Z,100.00
2024-04-22T04:25:29.258Z,100.00
2024-04-22T04:27:58.247Z,100.00
2024-04-22T04:30:29.547Z,100.00
2024-04-22T04:32:58.136Z,100.00
2024-04-22T04:35:30.855Z,100.00
2024-04-22T04:37:59.059Z,100.00
2024-04-22T04:40:35.277Z,100.00
2024-04-22T04:43:07.038Z,100.00
2024-04-22T04:45:37.477Z,100.00
2024-04-22T04:48:06.343Z,100.00
2024-04-22T04:50:37.362Z,100.00
2024-04-22T04:53:05.998Z,100.00
2024-04-22T04:55:39.553Z,100.00
2024-04-22T04:58:08.155Z,100.00
2024-04-22T05:00:39.482Z,100.00
2024-04-22T05:03:07.614Z,100.00
2024-04-22T05:05:39.464Z,100.00
2024-04-22T05:08:07.942Z,100.00
2024-04-22T05:10:41.993Z,100.00
2024-04-22T05:13:11.491Z,100.00
2024-04-22T05:15:46.917Z,100.00
2024-04-22T05:18:14.924Z,100.00
2024-04-22T05:20:46.388Z,100.00
2024-04-22T05:23:14.883Z,100.00
2024-04-22T05:25:52.783Z,100.00
2024-04-22T05:28:24.751Z,100.00
2024-04-22T05:30:59.643Z,100.00
2024-04-22T05:33:46.221Z,100.00
2024-04-22T05:36:17.350Z,100.00
2024-04-22T05:38:50.470Z,100.00
2024-04-22T05:41:26.528Z,100.00
2024-04-22T05:43:59.526Z,100.00
2024-04-22T05:46:30.084Z,100.00
2024-04-22T05:49:01.135Z,100.00
2024-04-22T05:51:34.698Z,100.00
2024-04-22T05:54:10.400Z,100.00
2024-04-22T05:56:41.212Z,100.00
2024-04-22T05:59:11.645Z,100.00
2024-04-22T06:01:41.375Z,100.00
2024-04-22T06:04:12.242Z,100.00
2024-04-22T06:06:40.922Z,100.00
2024-04-22T06:09:13.619Z,100.00
2024-04-22T06:11:53.475Z,100.00
2024-04-22T06:14:33.472Z,100.00
2024-04-22T06:17:01.548Z,100.00
2024-04-22T06:19:33.530Z,100.00
2024-04-22T06:22:01.338Z,100.00
2024-04-22T06:24:33.569Z,100.00
2024-04-22T06:27:04.448Z,100.00
2024-04-22T06:29:36.055Z,100.00
2024-04-22T06:32:05.920Z,100.00
2024-04-22T06:34:37.332Z,100.00
2024-04-22T06:37:08.489Z,100.00
2024-04-22T06:39:39.963Z,100.00
2024-04-22T06:42:10.919Z,100.00
2024-04-22T06:44:41.720Z,100.00
2024-04-22T06:47:10.758Z,100.00
2024-04-22T06:49:42.295Z,100.00
2024-04-22T06:52:10.701Z,100.00
2024-04-22T06:54:41.985Z,100.00
2024-04-22T06:57:13.925Z,100.00
2024-04-22T06:59:45.480Z,100.00
2024-04-22T07:02:16.445Z,100.00
2024-04-22T07:04:52.372Z,100.00
2024-04-22T07:07:22.033Z,100.00
2024-04-22T07:09:52.559Z,100.00
2024-04-22T07:12:23.145Z,100.00
2024-04-22T07:14:56.292Z,100.00
2024-04-22T07:17:24.866Z,98.49
2024-04-22T07:19:58.513Z,92.54
2024-04-22T07:22:33.581Z,89.92
2024-04-22T07:25:07.837Z,87.94
2024-04-22T07:27:40.179Z,84.76
2024-04-22T07:30:11.909Z,85.72
2024-04-22T07:32:41.107Z,81.56
2024-04-22T07:35:14.839Z,80.50
2024-04-22T07:37:47.399Z,77.17
2024-04-22T07:40:20.629Z,75.34
2024-04-22T07:42:51.309Z,70.44
2024-04-22T07:45:25.357Z,71.17
2024-04-22T07:47:59.487Z,71.16
2024-04-22T07:50:31.119Z,70.60
2024-04-22T07:52:59.541Z,69.48
2024-04-22T07:55:30.920Z,65.80
2024-04-22T07:58:02.440Z,64.83
2024-04-22T08:00:35.096Z,64.85
2024-04-22T08:03:04.076Z,63.62
2024-04-22T08:05:36.563Z,64.27
2024-04-22T08:08:08.746Z,62.52
2024-04-22T08:10:40.935Z,60.81
2024-04-22T08:13:11.565Z,61.38
2024-04-22T08:15:42.054Z,59.59
2024-04-22T08:18:15.301Z,60.97
2024-04-22T08:20:46.026Z,58.95
2024-04-22T08:23:13.856Z,56.84
2024-04-22T08:25:46.578Z,59.12
2024-04-22T08:28:19.316Z,61.21
2024-04-22T08:30:50.114Z,58.44
2024-04-22T08:33:18.095Z,57.95
2024-04-22T08:35:49.904Z,57.58
2024-04-22T08:38:18.043Z,56.41
2024-04-22T08:40:50.364Z,53.94
2024-04-22T08:43:21.181Z,54.69
2024-04-22T08:45:51.741Z,54.26
2024-04-22T08:48:20.760Z,54.12
2024-04-22T08:50:53.388Z,56.43
2024-04-22T08:53:22.067Z,55.65
2024-04-22T08:55:56.673Z,54.07
2024-04-22T08:58:28.099Z,55.36
2024-04-22T09:00:58.931Z,54.52
2024-04-22T09:03:27.190Z,54.65
2024-04-22T09:05:58.150Z,54.20
2024-04-22T09:08:26.087Z,55.25
2024-04-22T09:13:35.707Z,55.35
2024-04-22T09:16:06.786Z,54.66
2024-04-22T09:18:37.753Z,55.92
2024-04-22T09:21:09.597Z,52.40
2024-04-22T09:23:38.589Z,51.20
2024-04-22T09:26:10.448Z,48.41
2024-04-22T09:28:42.729Z,49.60
2024-04-22T09:31:15.626Z,49.60
2024-04-22T09:33:47.842Z,48.95
2024-04-22T09:36:17.320Z,48.29
2024-04-22T09:38:49.933Z,48.91
2024-04-22T09:41:21.986Z,48.35
2024-04-22T09:44:01.197Z,49.77
2024-04-22T09:46:36.606Z,50.08
2024-04-22T09:49:09.698Z,50.47
2024-04-22T09:51:39.439Z,50.79
2024-04-22T09:54:14.126Z,50.55
2024-04-22T09:56:42.243Z,50.20
2024-04-22T09:59:17.115Z,50.06
2024-04-22T10:01:47.336Z,48.99
2024-04-22T10:04:18.088Z,46.62
2024-04-22T10:06:47.370Z,47.98
2024-04-22T10:09:22.716Z,48.15
2024-04-22T10:11:54.579Z,48.30
2024-04-22T10:14:31.921Z,47.42
2024-04-22T10:17:01.198Z,47.71
2024-04-22T10:19:33.802Z,48.85
2024-04-22T10:22:02.140Z,49.00
2024-04-22T10:24:40.980Z,43.92
2024-04-22T10:27:12.378Z,41.98
2024-04-22T10:29:47.376Z,44.17
2024-04-22T10:32:17.197Z,45.16
2024-04-22T10:34:48.731Z,45.23
2024-04-22T10:37:18.644Z,46.75
2024-04-22T10:39:49.929Z,46.95
2024-04-22T10:42:19.416Z,46.09
2024-04-22T10:44:52.868Z,46.93
2024-04-22T10:47:23.685Z,46.74
2024-04-22T10:49:55.150Z,45.49
2024-04-22T10:52:25.759Z,46.25
2024-04-22T10:54:57.273Z,46.99
2024-04-22T10:57:25.169Z,47.86
2024-04-22T11:00:11.830Z,47.45
2024-04-22T11:02:45.394Z,48.63
2024-04-22T11:05:20.287Z,48.51
2024-04-22T11:07:55.205Z,48.72
2024-04-22T11:10:34.304Z,49.96
2024-04-22T11:13:18.353Z,51.25
2024-04-22T11:15:52.550Z,52.31
2024-04-22T11:18:26.019Z,53.37
2024-04-22T11:20:56.007Z,52.86
2024-04-22T11:23:28.036Z,51.20
2024-04-22T11:25:57.611Z,51.01
2024-04-22T11:28:28.799Z,50.07
2024-04-22T11:30:59.761Z,49.28
2024-04-22T11:33:34.020Z,48.34
2024-04-22T11:36:02.120Z,47.27
2024-04-22T11:38:34.033Z,46.31
2024-04-22T11:41:02.317Z,45.66
2024-04-22T11:43:33.190Z,47.62
2024-04-22T11:46:05.880Z,49.88
2024-04-22T11:48:39.751Z,47.46
2024-04-22T11:51:10.490Z,46.26
2024-04-22T11:53:41.892Z,46.54
2024-04-22T11:56:11.380Z,46.50
2024-04-22T11:58:42.772Z,45.50
2024-04-22T12:01:13.925Z,45.14
2024-04-22T12:03:46.629Z,45.71
2024-04-22T12:06:16.002Z,45.25
2024-04-22T12:08:46.890Z,45.20
2024-04-22T12:11:15.028Z,47.23
2024-04-22T12:13:45.532Z,47.92
2024-04-22T12:16:16.637Z,46.89
2024-04-22T12:18:47.720Z,45.79
2024-04-22T12:21:15.532Z,45.05
2024-04-22T12:23:47.091Z,46.35
2024-04-22T12:26:16.514Z,42.93
2024-04-22T12:28:47.418Z,40.58
2024-04-22T12:31:18.587Z,38.55
2024-04-22T12:33:58.731Z,36.96
2024-04-22T12:36:37.198Z,36.30
2024-04-22T12:39:16.795Z,36.91
2024-04-22T12:41:50.005Z,36.49
2024-04-22T12:44:20.535Z,34.74
2024-04-22T12:47:16.566Z,35.57
2024-04-22T12:50:03.137Z,36.49
2024-04-22T12:52:34.376Z,37.62
2024-04-22T12:55:06.378Z,38.11
2024-04-22T12:57:38.916Z,36.00
2024-04-22T13:00:15.748Z,34.87
2024-04-22T13:02:50.444Z,37.52
2024-04-22T13:05:23.203Z,35.55
2024-04-22T13:07:54.229Z,39.78
2024-04-22T13:10:26.109Z,41.37
2024-04-22T13:12:58.489Z,42.82
2024-04-22T13:15:29.118Z,44.80
2024-04-22T13:18:03.325Z,43.62
2024-04-22T13:20:34.638Z,43.62
2024-04-22T13:23:08.435Z,43.67
2024-04-22T13:25:40.018Z,38.87
2024-04-22T13:28:09.186Z,36.25
2024-04-22T13:30:44.099Z,34.85
2024-04-22T13:33:18.487Z,34.41
2024-04-22T13:35:49.871Z,34.79
2024-04-22T13:38:19.258Z,37.11
2024-04-22T13:40:51.876Z,38.14
2024-04-22T13:43:20.070Z,40.01
2024-04-22T13:45:51.722Z,39.77
2024-04-22T13:48:23.691Z,40.34
2024-04-22T13:50:54.258Z,40.74
2024-04-22T13:53:26.927Z,42.73
2024-04-22T13:56:04.814Z,45.01
2024-04-22T13:58:33.288Z,44.95
2024-04-22T14:01:04.973Z,45.23
2024-04-22T14:03:36.512Z,46.04
2024-04-22T14:06:12.021Z,46.32
2024-04-22T14:08:43.700Z,45.85
2024-04-22T14:11:15.485Z,45.04
2024-04-22T14:13:44.735Z,42.42
2024-04-22T14:16:16.193Z,39.60
2024-04-22T14:18:47.706Z,37.60
2024-04-22T14:21:20.501Z,35.85
2024-04-22T14:23:50.195Z,34.83
2024-04-22T14:26:23.253Z,34.91
2024-04-22T14:28:58.399Z,34.34
2024-04-22T14:31:31.524Z,35.10
2024-04-22T14:34:05.335Z,33.98
2024-04-22T14:36:39.618Z,33.19
2024-04-22T14:39:09.696Z,35.32
2024-04-22T14:41:45.223Z,38.26
2024-04-22T14:44:14.245Z,41.05
2024-04-22T14:46:46.678Z,39.58
2024-04-22T14:49:20.326Z,40.89
2024-04-22T14:51:52.263Z,43.63
2024-04-22T14:54:22.163Z,42.24
2024-04-22T14:56:59.080Z,40.92
2024-04-22T14:59:28.062Z,41.47
2024-04-22T15:01:59.658Z,43.55
2024-04-22T15:04:30.873Z,43.36
2024-04-22T15:07:04.491Z,43.13
2024-04-22T15:09:33.410Z,43.28
2024-04-22T15:12:04.643Z,41.11
2024-04-22T15:14:52.343Z,40.91
2024-04-22T15:17:23.483Z,41.20
2024-04-22T15:19:54.757Z,41.59
2024-04-22T15:22:25.454Z,41.11
2024-04-22T15:24:54.809Z,43.12
2024-04-22T15:27:27.784Z,41.72
2024-04-22T15:29:56.141Z,42.86
2024-04-22T15:32:32.781Z,42.82
2024-04-22T15:35:06.780Z,42.29
2024-04-22T15:37:37.615Z,42.02
2024-04-22T15:40:08.027Z,38.90
2024-04-22T15:42:39.886Z,36.99
2024-04-22T15:45:08.189Z,37.90
2024-04-22T15:47:40.301Z,39.44
2024-04-22T15:50:13.003Z,39.26
2024-04-22T15:52:43.926Z,39.11
2024-04-22T15:55:12.671Z,39.20
2024-04-22T15:57:44.001Z,36.81
2024-04-22T16:00:16.347Z,36.78
2024-04-22T16:02:51.007Z,34.75
2024-04-22T16:05:24.554Z,34.67
2024-04-22T16:07:55.023Z,34.59
2024-04-22T16:10:23.989Z,32.87
2024-04-22T16:13:08.360Z,31.87
2024-04-22T16:15:36.551Z,31.89
2024-04-22T16:18:08.955Z,32.12
2024-04-22T16:20:49.437Z,33.71
2024-04-22T16:23:21.127Z,32.40
2024-04-22T16:25:50.481Z,32.48
2024-04-22T16:28:25.045Z,32.98
2024-04-22T16:30:54.131Z,34.45
2024-04-22T16:33:27.589Z,34.91
2024-04-22T16:35:58.026Z,34.87
2024-04-22T16:38:32.697Z,33.84
2024-04-22T16:41:00.548Z,33.58
2024-04-22T16:43:32.465Z,31.86
2024-04-22T16:46:00.674Z,33.05
2024-04-22T16:48:31.781Z,36.02
2024-04-22T16:51:02.895Z,37.20
2024-04-22T16:53:33.456Z,38.29
2024-04-22T16:56:02.467Z,39.93
2024-04-22T16:58:34.584Z,40.33
2024-04-22T17:01:03.238Z,40.90
2024-04-22T17:03:35.669Z,40.96
2024-04-22T17:06:11.715Z,41.59
2024-04-22T17:08:44.746Z,40.71
2024-04-22T17:11:12.706Z,41.19
2024-04-22T17:13:43.426Z,41.49
2024-04-22T17:16:11.472Z,41.47
2024-04-22T17:18:43.314Z,41.77
2024-04-22T17:21:16.699Z,41.65
2024-04-22T17:23:47.608Z,42.35
2024-04-22T17:26:19.121Z,43.36
2024-04-22T17:28:52.413Z,46.24
2024-04-22T17:31:23.581Z,42.51
2024-04-22T17:33:55.310Z,42.62
2024-04-22T17:36:27.373Z,43.64
2024-04-22T17:38:58.683Z,43.83
2024-04-22T17:41:27.543Z,43.48
2024-04-22T17:43:58.824Z,43.56
2024-04-22T17:46:29.243Z,44.18
2024-04-22T17:49:00.928Z,44.22
2024-04-22T17:51:31.495Z,45.21
2024-04-22T17:54:02.929Z,44.48
2024-04-22T17:56:34.376Z,45.08
2024-04-22T17:59:05.817Z,45.53
2024-04-22T18:01:36.327Z,45.70
2024-04-22T18:04:09.102Z,45.70
2024-04-22T18:06:39.531Z,46.28
2024-04-22T18:09:10.735Z,47.12
2024-04-22T18:11:40.015Z,47.37
2024-04-22T18:14:11.599Z,47.71
2024-04-22T18:16:44.449Z,48.66
2024-04-22T18:19:17.460Z,50.33
2024-04-22T18:21:50.761Z,50.03
2024-04-22T18:24:29.035Z,50.10
2024-04-22T18:26:57.536Z,50.99
2024-04-22T18:29:29.435Z,51.22
2024-04-22T18:31:59.521Z,51.92
2024-04-22T18:34:31.284Z,51.76
2024-04-22T18:37:04.239Z,52.45
2024-04-22T18:39:35.921Z,53.13
2024-04-22T18:42:05.398Z,53.74
2024-04-22T18:44:36.241Z,54.19
2024-04-22T18:47:06.555Z,54.48
2024-04-22T18:49:40.143Z,55.83
2024-04-22T18:52:11.201Z,56.37
2024-04-22T18:54:43.390Z,56.78
2024-04-22T18:57:12.391Z,57.19
2024-04-22T18:59:44.316Z,57.52
2024-04-22T19:02:15.852Z,59.23
2024-04-22T19:04:45.102Z,58.31
2024-04-22T19:07:19.869Z,59.89
2024-04-22T19:09:48.282Z,60.93
2024-04-22T19:12:20.384Z,61.05
2024-04-22T19:14:49.306Z,60.82
2024-04-22T19:17:21.174Z,61.00
2024-04-22T19:19:49.270Z,61.76
2024-04-22T19:22:22.674Z,62.42
2024-04-22T19:24:52.754Z,62.38
2024-04-22T19:27:24.235Z,63.18
2024-04-22T19:29:52.735Z,63.04
2024-04-22T19:32:24.623Z,63.23
2024-04-22T19:34:53.818Z,62.91
2024-04-22T19:37:28.422Z,63.04
2024-04-22T19:40:01.324Z,63.33
2024-04-22T19:42:33.803Z,63.92
2024-04-22T19:45:11.406Z,63.62
2024-04-22T19:47:43.578Z,64.67
2024-04-22T19:50:11.556Z,64.04
2024-04-22T19:52:45.072Z,64.64
2024-04-22T19:55:14.610Z,65.20
2024-04-22T19:57:45.296Z,64.50
2024-04-22T20:00:15.644Z,65.25
2024-04-22T20:02:51.233Z,65.52
2024-04-22T20:05:19.476Z,66.12
2024-04-22T20:07:54.401Z,66.32
2024-04-22T20:10:26.235Z,66.94
2024-04-22T20:12:56.721Z,67.08
2024-04-22T20:15:44.815Z,67.79
2024-04-22T20:18:42.687Z,67.18
2024-04-22T20:21:11.217Z,67.48
2024-04-22T20:23:44.640Z,69.28
2024-04-22T20:26:12.593Z,68.67
2024-04-22T20:28:44.387Z,69.22
2024-04-22T20:31:18.325Z,69.72
2024-04-22T20:33:50.268Z,70.00
2024-04-22T20:36:22.399Z,69.22
2024-04-22T20:39:03.105Z,70.17
2024-04-22T20:41:34.774Z,70.66
2024-04-22T20:44:05.624Z,70.95
2024-04-22T20:46:34.946Z,71.29
2024-04-22T20:49:06.677Z,70.08
2024-04-22T20:51:35.362Z,70.95
2024-04-22T20:54:11.172Z,70.97
2024-04-22T20:56:39.414Z,70.89
2024-04-22T20:59:10.919Z,70.07
2024-04-22T21:01:39.594Z,71.00
2024-04-22T21:04:10.223Z,71.32
2024-04-22T21:06:39.119Z,71.40
2024-04-22T21:09:15.592Z,70.94
2024-04-22T21:11:47.455Z,70.77
2024-04-22T21:14:19.089Z,71.09
2024-04-22T21:16:52.769Z,71.60
2024-04-22T21:19:23.458Z,71.93
2024-04-22T21:21:52.494Z,72.14
2024-04-22T21:24:26.121Z,72.17
2024-04-22T21:26:58.306Z,72.15
2024-04-22T21:29:33.809Z,72.88
2024-04-22T21:32:01.783Z,72.86
2024-04-22T21:34:33.238Z,72.81
2024-04-22T21:37:01.673Z,73.14
2024-04-22T21:39:35.812Z,73.38
2024-04-22T21:42:04.558Z,74.16
2024-04-22T21:44:34.925Z,73.20
2024-04-22T21:47:04.309Z,73.60
2024-04-22T21:49:34.973Z,73.48
2024-04-22T21:52:04.300Z,74.23
2024-04-22T21:54:37.364Z,74.53
2024-04-22T21:57:24.655Z,74.05
2024-04-22T22:00:33.112Z,75.20
2024-04-22T22:03:39.021Z,75.73
2024-04-22T22:06:48.792Z,75.47
2024-04-22T22:09:25.495Z,75.48
2024-04-22T22:11:56.217Z,75.43
2024-04-22T22:14:26.042Z,75.36
2024-04-22T22:16:56.780Z,75.48
2024-04-22T22:19:25.135Z,76.72
2024-04-22T22:21:57.617Z,76.71
2024-04-22T22:24:36.647Z,77.50
2024-04-22T22:27:21.394Z,78.00
2024-04-22T22:29:49.220Z,78.74
2024-04-22T22:32:22.458Z,78.92
2024-04-22T22:34:50.488Z,78.95
2024-04-22T22:37:21.335Z,79.62
2024-04-22T22:39:52.907Z,80.06
2024-04-22T22:42:26.456Z,80.33
2024-04-22T22:44:55.514Z,81.26
2024-04-22T22:47:29.216Z,82.25
2024-04-22T22:49:58.478Z,82.44
2024-04-22T22:52:29.130Z,83.26
2024-04-22T22:55:00.265Z,82.73
2024-04-22T22:57:33.639Z,84.11
2024-04-22T23:00:05.508Z,83.43
2024-04-22T23:02:36.508Z,84.40
2024-04-22T23:05:06.293Z,84.42
2024-04-22T23:07:36.793Z,85.85
2024-04-22T23:10:07.541Z,86.18
2024-04-22T23:12:38.055Z,87.34
2024-04-22T23:15:08.037Z,88.35
2024-04-22T23:17:39.559Z,89.21
2024-04-22T23:20:09.215Z,89.45
2024-04-22T23:22:39.907Z,89.82
2024-04-22T23:25:12.489Z,89.90
2024-04-22T23:27:42.836Z,89.83
2024-04-22T23:30:11.443Z,89.30
2024-04-22T23:32:41.890Z,90.80
2024-04-22T23:35:10.665Z,91.57
2024-04-22T23:37:41.325Z,92.12
2024-04-22T23:40:12.328Z,93.02
2024-04-22T23:42:42.963Z,93.39
2024-04-22T23:45:10.863Z,93.62
2024-04-22T23:47:43.611Z,93.03
2024-04-22T23:50:11.525Z,93.06
2024-04-22T23:52:43.011Z,93.50
2024-04-22T23:55:14.870Z,95.29
2024-04-22T23:57:45.299Z,95.69
